Time;durP1;ratioP1;P1;durP2;ratioP2;P2;SDS_P1;SDS_P2;PMS_P1;PMS_P2;Temp;Humidity;BMP_temperature;BMP_pressure;BME280_temperature;BME280_humidity;BME280_pressure;Samples;Min_cycle;Max_cycle;Signal;HPM_P1;HPM_P2
2022/05/10 00:02:13;;;;;;;7.90;3.63;;;13.70;99.90;;;;;;5105937;28;20510;-79
2022/05/10 00:04:45;;;;;;;5.73;3.03;;;13.70;99.90;;;;;;5108116;28;20936;-79
2022/05/10 00:07:13;;;;;;;3.43;3.20;;;13.70;99.90;;;;;;5110280;28;20983;-76
2022/05/10 00:09:42;;;;;;;5.90;3.60;;;13.70;99.90;;;;;;5109218;28;20504;-75
2022/05/10 00:12:10;;;;;;;3.40;3.10;;;13.60;99.90;;;;;;5103534;28;20483;-75
2022/05/10 00:14:39;;;;;;;5.30;3.97;;;13.70;99.90;;;;;;5112311;27;20469;-76
2022/05/10 00:17:08;;;;;;;7.20;3.90;;;13.70;99.90;;;;;;5109163;28;20590;-78
2022/05/10 00:19:36;;;;;;;3.87;3.30;;;13.60;99.90;;;;;;5112820;28;20465;-80
2022/05/10 00:22:04;;;;;;;5.00;2.90;;;13.60;99.90;;;;;;5110515;28;20545;-77
2022/05/10 00:24:32;;;;;;;5.87;4.10;;;13.60;99.90;;;;;;5111376;28;21120;-78
2022/05/10 00:27:01;;;;;;;5.63;3.60;;;13.50;99.90;;;;;;5111717;28;20444;-78
2022/05/10 00:29:29;;;;;;;7.00;3.80;;;13.50;99.90;;;;;;5108613;28;20430;-78
2022/05/10 00:31:57;;;;;;;4.90;3.13;;;13.50;99.90;;;;;;5109349;28;20481;-78
2022/05/10 00:34:29;;;;;;;3.33;2.80;;;13.50;99.90;;;;;;5108619;28;20442;-79
2022/05/10 00:36:57;;;;;;;3.87;3.07;;;13.50;99.90;;;;;;5104158;28;20533;-77
2022/05/10 00:39:25;;;;;;;3.63;2.90;;;13.40;99.90;;;;;;5102501;28;20520;-76
2022/05/10 00:41:59;;;;;;;8.00;3.73;;;13.40;99.90;;;;;;5104751;28;20511;-79
2022/05/10 00:44:34;;;;;;;4.60;2.87;;;13.40;99.90;;;;;;5106228;28;20417;-79
2022/05/10 00:47:09;;;;;;;3.27;2.73;;;13.30;99.90;;;;;;5108030;28;20944;-79
2022/05/10 00:49:42;;;;;;;7.33;3.07;;;13.30;99.90;;;;;;5109309;28;20437;-78
2022/05/10 00:52:16;;;;;;;5.57;3.10;;;13.30;99.90;;;;;;5112065;28;21006;-77
2022/05/10 00:54:51;;;;;;;6.17;3.30;;;13.30;99.90;;;;;;5112029;28;20432;-77
2022/05/10 00:57:28;;;;;;;3.77;3.23;;;13.20;99.90;;;;;;5113291;28;20445;-79
2022/05/10 01:00:05;;;;;;;3.90;3.20;;;13.20;99.90;;;;;;5109774;28;20426;-79
2022/05/10 01:02:46;;;;;;;7.73;3.27;;;13.20;99.90;;;;;;5108839;28;20461;-79
2022/05/10 01:05:19;;;;;;;4.00;3.40;;;13.20;99.90;;;;;;5108719;27;20471;-79
2022/05/10 01:07:58;;;;;;;4.90;3.70;;;13.20;99.90;;;;;;5108930;28;20452;-78
2022/05/10 01:10:37;;;;;;;6.10;3.50;;;13.10;99.90;;;;;;5109121;28;20426;-76
2022/05/10 01:13:14;;;;;;;5.73;4.20;;;13.10;99.90;;;;;;5109384;28;20491;-76
2022/05/10 01:15:54;;;;;;;5.03;3.33;;;13.10;99.90;;;;;;5110658;28;20429;-77
2022/05/10 01:18:23;;;;;;;3.40;3.10;;;13.10;99.90;;;;;;5107907;28;20445;-76
2022/05/10 01:20:55;;;;;;;6.37;3.93;;;13.00;99.90;;;;;;5108018;28;20442;-79
2022/05/10 01:24:02;;;;;;;6.50;3.63;;;13.00;99.90;;;;;;5110384;28;20933;-77
2022/05/10 01:26:44;;;;;;;3.47;2.80;;;13.00;99.90;;;;;;5093227;28;20445;-76
2022/05/10 01:29:19;;;;;;;5.60;4.30;;;13.00;99.90;;;;;;5105693;28;20447;-75
2022/05/10 01:34:38;;;;;;;6.93;3.33;;;12.90;99.90;;;;;;5104369;27;20453;-77
2022/05/10 01:37:13;;;;;;;4.37;3.10;;;12.90;99.90;;;;;;5109911;28;21084;-77
2022/05/10 01:39:46;;;;;;;8.43;3.70;;;12.90;99.90;;;;;;5108157;28;20440;-78
2022/05/10 01:42:26;;;;;;;3.33;3.00;;;12.90;99.90;;;;;;5109132;28;20479;-78
2022/05/10 01:44:59;;;;;;;4.83;3.23;;;12.90;99.90;;;;;;5110079;28;20454;-76
2022/05/10 01:47:32;;;;;;;4.87;3.47;;;12.80;99.90;;;;;;5108079;28;20463;-78
2022/05/10 01:50:04;;;;;;;4.27;3.17;;;12.80;99.90;;;;;;5112555;28;20522;-79
2022/05/10 01:52:40;;;;;;;8.70;3.67;;;12.90;99.90;;;;;;5113182;28;20479;-79
2022/05/10 01:55:23;;;;;;;4.60;3.70;;;12.80;99.90;;;;;;5114969;27;20457;-79
2022/05/10 01:57:54;;;;;;;7.03;3.53;;;12.80;99.90;;;;;;5118126;28;20549;-78
2022/05/10 02:00:25;;;;;;;6.07;3.17;;;12.80;99.90;;;;;;5116863;28;20647;-78
2022/05/10 02:02:58;;;;;;;4.40;3.00;;;12.70;99.90;;;;;;5111120;28;20540;-78
2022/05/10 02:05:33;;;;;;;4.13;3.73;;;12.70;99.90;;;;;;5111045;28;20469;-78
2022/05/10 02:08:07;;;;;;;3.50;3.20;;;12.70;99.90;;;;;;5111503;28;20516;-78
2022/05/10 02:10:42;;;;;;;5.40;3.50;;;12.70;99.90;;;;;;5113122;28;20510;-79
2022/05/10 02:13:14;;;;;;;4.97;3.50;;;12.70;99.90;;;;;;5112777;28;20498;-78
2022/05/10 02:15:48;;;;;;;6.50;3.33;;;12.70;99.90;;;;;;5112709;27;20475;-77
2022/05/10 02:18:21;;;;;;;5.87;4.00;;;12.70;99.90;;;;;;5111216;28;20438;-78
2022/05/10 02:20:53;;;;;;;5.50;3.30;;;12.70;99.90;;;;;;5110549;27;20450;-79
2022/05/10 02:23:25;;;;;;;4.57;3.27;;;12.60;99.90;;;;;;5111170;28;20412;-80
2022/05/10 02:25:57;;;;;;;3.70;3.40;;;12.60;99.90;;;;;;5112617;28;20442;-80
2022/05/10 02:28:34;;;;;;;5.17;4.10;;;12.60;99.90;;;;;;5114713;28;20485;-78
2022/05/10 02:31:09;;;;;;;4.13;3.70;;;12.60;99.90;;;;;;5112344;28;20438;-78
2022/05/10 02:33:37;;;;;;;4.50;2.97;;;12.60;99.90;;;;;;5109518;27;20493;-78
2022/05/10 02:36:05;;;;;;;6.87;3.57;;;12.60;99.90;;;;;;5110920;28;20445;-79
2022/05/10 02:38:37;;;;;;;7.87;3.63;;;12.60;99.90;;;;;;5110593;27;20433;-79
2022/05/10 02:41:14;;;;;;;3.40;3.10;;;12.60;99.90;;;;;;5112667;28;20433;-79
2022/05/10 02:43:48;;;;;;;7.47;4.10;;;12.60;99.90;;;;;;5112165;28;20469;-77
2022/05/10 02:46:18;;;;;;;6.30;3.50;;;12.70;99.90;;;;;;5109180;28;20429;-79
2022/05/10 02:48:47;;;;;;;5.27;3.80;;;12.70;99.90;;;;;;5107052;28;20963;-78
2022/05/10 02:51:16;;;;;;;5.00;3.73;;;12.70;99.90;;;;;;5109603;28;20521;-76
2022/05/10 02:53:44;;;;;;;7.20;4.00;;;12.70;99.90;;;;;;5109478;27;20472;-77
2022/05/10 02:56:16;;;;;;;4.37;3.97;;;12.70;99.90;;;;;;5107084;28;20445;-80
2022/05/10 02:58:48;;;;;;;3.77;2.90;;;12.70;99.90;;;;;;5108331;28;20438;-80
2022/05/10 03:01:23;;;;;;;5.03;3.30;;;12.70;99.90;;;;;;5120984;28;20525;-79
2022/05/10 03:03:52;;;;;;;4.07;3.67;;;12.60;99.90;;;;;;5119204;28;20421;-77
2022/05/10 03:06:22;;;;;;;3.57;3.27;;;12.60;99.90;;;;;;5120224;27;20547;-79
2022/05/10 03:08:50;;;;;;;5.57;3.97;;;12.70;99.90;;;;;;5117397;28;20557;-79
2022/05/10 03:11:19;;;;;;;5.70;3.10;;;12.70;99.90;;;;;;5118416;28;20481;-78
2022/05/10 03:13:48;;;;;;;4.03;3.40;;;12.70;99.90;;;;;;5121305;28;20480;-78
2022/05/10 03:16:22;;;;;;;6.40;2.77;;;12.70;99.90;;;;;;5120075;28;20446;-79
2022/05/10 03:18:51;;;;;;;10.60;4.53;;;12.70;99.90;;;;;;5110613;28;20948;-78
2022/05/10 03:21:19;;;;;;;3.13;2.93;;;12.70;99.90;;;;;;5109569;28;20453;-80
2022/05/10 03:23:47;;;;;;;7.33;3.80;;;12.70;99.90;;;;;;5108277;28;20444;-78
2022/05/10 03:26:18;;;;;;;5.23;4.27;;;12.70;99.90;;;;;;5110353;28;20464;-80
2022/05/10 03:28:46;;;;;;;4.83;4.30;;;12.80;99.90;;;;;;5118813;28;20456;-82
2022/05/10 03:31:17;;;;;;;6.53;4.17;;;12.80;99.90;;;;;;5117270;28;21079;-84
2022/05/10 03:34:53;;;;;;;3.40;3.13;;;12.80;99.90;;;;;;5114892;28;20461;-83
2022/05/10 03:36:36;;;;;;;5.40;3.77;;;12.70;99.90;;;;;;5115437;28;20486;-79
2022/05/10 03:39:04;;;;;;;4.53;4.20;;;12.70;99.90;;;;;;5114669;28;20453;-78
2022/05/10 03:41:32;;;;;;;5.23;4.43;;;12.80;99.90;;;;;;5115484;28;20458;-80
2022/05/10 03:44:00;;;;;;;5.50;4.20;;;12.80;99.90;;;;;;5113275;28;20448;-80
2022/05/10 03:46:28;;;;;;;4.67;3.60;;;12.80;99.90;;;;;;5112591;28;20441;-79
2022/05/10 03:48:58;;;;;;;3.87;3.57;;;12.80;99.90;;;;;;5113446;28;20421;-79
2022/05/10 03:51:26;;;;;;;4.70;3.80;;;12.80;99.90;;;;;;5116253;28;20450;-80
2022/05/10 03:53:54;;;;;;;4.13;3.73;;;12.80;99.90;;;;;;5112760;28;20503;-79
2022/05/10 03:56:22;;;;;;;4.50;3.63;;;12.90;99.90;;;;;;5112478;28;20449;-80
2022/05/10 03:58:51;;;;;;;4.03;3.40;;;12.90;99.90;;;;;;5112220;28;20468;-79
2022/05/10 04:01:20;;;;;;;4.80;3.73;;;12.90;99.90;;;;;;5112799;27;21026;-78
2022/05/10 04:03:49;;;;;;;4.77;4.03;;;12.90;99.90;;;;;;5115602;28;20498;-78
2022/05/10 04:06:19;;;;;;;3.77;3.40;;;12.90;99.90;;;;;;5111199;28;20429;-80
2022/05/10 04:08:47;;;;;;;4.03;3.33;;;12.90;99.90;;;;;;5113562;28;20472;-79
2022/05/10 04:11:15;;;;;;;8.30;3.87;;;13.00;99.90;;;;;;5114055;28;20469;-80
2022/05/10 04:13:44;;;;;;;4.03;3.60;;;13.00;99.90;;;;;;5113478;28;20507;-81
2022/05/10 04:16:12;;;;;;;3.47;3.27;;;13.00;99.90;;;;;;5112551;28;21163;-82
2022/05/10 04:18:41;;;;;;;3.37;3.23;;;13.00;99.90;;;;;;5111880;28;20482;-80
2022/05/10 04:21:09;;;;;;;10.50;3.73;;;13.00;99.90;;;;;;5113766;28;21160;-80
2022/05/10 04:23:54;;;;;;;6.23;4.30;;;13.00;99.90;;;;;;5123661;28;20438;-80
2022/05/10 04:26:22;;;;;;;3.63;3.30;;;13.10;99.90;;;;;;5115217;28;20437;-78
2022/05/10 04:28:50;;;;;;;6.73;4.10;;;13.10;99.90;;;;;;5111703;28;20453;-80
2022/05/10 04:31:23;;;;;;;4.97;3.87;;;13.10;99.90;;;;;;5115007;28;20477;-78
2022/05/10 04:33:58;;;;;;;6.90;3.90;;;13.20;99.90;;;;;;5111131;28;20476;-79
2022/05/10 04:36:27;;;;;;;4.50;3.90;;;13.30;99.90;;;;;;5110052;28;21011;-81
2022/05/10 04:38:56;;;;;;;6.37;3.90;;;13.30;99.90;;;;;;5112391;28;20534;-81
2022/05/10 04:41:26;;;;;;;4.47;3.43;;;13.40;99.90;;;;;;5110619;27;20535;-81
2022/05/10 04:43:57;;;;;;;4.83;3.53;;;13.50;99.90;;;;;;5109409;28;20433;-78
2022/05/10 04:46:25;;;;;;;6.40;4.90;;;13.60;99.90;;;;;;5110294;28;20444;-78
2022/05/10 04:48:53;;;;;;;6.00;3.77;;;13.70;99.90;;;;;;5110328;28;20448;-79
2022/05/10 04:51:21;;;;;;;8.07;4.17;;;13.80;99.90;;;;;;5110974;28;20477;-78
2022/05/10 04:53:50;;;;;;;6.30;3.87;;;13.90;99.90;;;;;;5110273;28;20468;-79
2022/05/10 04:56:19;;;;;;;6.00;4.30;;;14.00;99.90;;;;;;5112443;27;20525;-82
2022/05/10 04:58:47;;;;;;;4.93;3.90;;;14.00;99.90;;;;;;5108969;28;20450;-82
2022/05/10 05:01:17;;;;;;;4.93;3.60;;;14.10;99.90;;;;;;5112274;28;20513;-81
2022/05/10 05:03:47;;;;;;;4.73;4.30;;;14.20;99.90;;;;;;5116162;28;20433;-78
2022/05/10 05:06:16;;;;;;;4.90;3.90;;;14.20;99.90;;;;;;5105361;28;20438;-77
2022/05/10 05:08:44;;;;;;;5.03;3.90;;;14.20;99.90;;;;;;5101309;28;20536;-77
2022/05/10 05:11:12;;;;;;;19.53;7.80;;;14.30;99.90;;;;;;5105867;28;20513;-79
2022/05/10 05:13:41;;;;;;;14.10;5.87;;;14.30;99.90;;;;;;5106716;28;20440;-76
2022/05/10 05:16:09;;;;;;;14.33;6.33;;;14.40;99.90;;;;;;5109417;28;20506;-79
2022/05/10 05:18:37;;;;;;;10.90;5.00;;;14.40;99.90;;;;;;5108730;27;20460;-80
2022/05/10 05:21:05;;;;;;;10.70;5.30;;;14.50;99.90;;;;;;5105696;28;20457;-77
2022/05/10 05:23:33;;;;;;;5.33;4.63;;;14.60;99.90;;;;;;5104465;28;20449;-81
2022/05/10 05:26:01;;;;;;;4.10;3.80;;;14.70;99.90;;;;;;5118560;28;20505;-77
2022/05/10 05:28:29;;;;;;;9.90;4.80;;;14.70;99.90;;;;;;5112045;27;20536;-79
2022/05/10 05:30:59;;;;;;;8.60;4.77;;;14.80;99.90;;;;;;5122489;28;20427;-78
2022/05/10 05:33:27;;;;;;;5.53;4.53;;;14.80;99.90;;;;;;5122544;27;20440;-76
2022/05/10 05:35:56;;;;;;;9.30;4.63;;;14.80;99.90;;;;;;5120567;27;20595;-81
2022/05/10 05:38:26;;;;;;;4.10;3.80;;;14.80;99.90;;;;;;5123178;27;21050;-76
2022/05/10 05:40:54;;;;;;;8.60;4.27;;;14.80;99.90;;;;;;5111806;27;20433;-80
2022/05/10 05:43:23;;;;;;;13.90;5.53;;;14.80;99.90;;;;;;5119716;27;20473;-78
2022/05/10 05:45:52;;;;;;;4.80;4.37;;;14.90;99.90;;;;;;5119896;27;20615;-79
2022/05/10 05:48:22;;;;;;;4.80;4.40;;;14.90;99.90;;;;;;5118866;27;20984;-79
2022/05/10 05:50:50;;;;;;;9.33;4.80;;;14.90;99.90;;;;;;5118608;27;20548;-75
2022/05/10 05:53:18;;;;;;;7.03;4.57;;;15.00;99.90;;;;;;5124197;27;20552;-72
2022/05/10 05:55:48;;;;;;;8.90;4.67;;;15.10;99.90;;;;;;5123435;27;20480;-72
2022/05/10 05:58:17;;;;;;;7.10;4.43;;;15.10;99.90;;;;;;5118977;27;20505;-71
2022/05/10 06:00:45;;;;;;;4.70;4.30;;;15.20;99.90;;;;;;5120987;27;20491;-72
2022/05/10 06:03:13;;;;;;;13.40;4.63;;;15.30;99.90;;;;;;5120071;27;20543;-73
2022/05/10 06:05:42;;;;;;;6.03;5.17;;;15.30;99.90;;;;;;5115496;27;20445;-73
2022/05/10 06:08:11;;;;;;;8.10;4.93;;;15.40;99.90;;;;;;5115695;27;20452;-72
2022/05/10 06:10:39;;;;;;;9.50;6.13;;;15.40;99.90;;;;;;5115312;27;20450;-73
2022/05/10 06:13:07;;;;;;;6.30;4.90;;;15.50;99.90;;;;;;5117311;27;20468;-79
2022/05/10 06:15:35;;;;;;;6.30;4.63;;;15.60;99.90;;;;;;5124771;27;20468;-75
2022/05/10 06:18:04;;;;;;;8.33;5.20;;;15.70;99.90;;;;;;5117612;27;20453;-74
2022/05/10 06:20:32;;;;;;;7.00;5.13;;;15.80;99.90;;;;;;5128522;27;20962;-75
2022/05/10 06:23:03;;;;;;;4.50;4.10;;;15.90;99.90;;;;;;5124821;27;21131;-75
2022/05/10 06:25:31;;;;;;;6.07;4.10;;;16.10;99.90;;;;;;5125204;27;20544;-74
2022/05/10 06:27:59;;;;;;;7.37;4.87;;;16.30;99.90;;;;;;5120849;27;20452;-75
2022/05/10 06:30:27;;;;;;;5.67;5.03;;;16.50;99.90;;;;;;5119892;27;20597;-76
2022/05/10 06:32:56;;;;;;;5.97;4.80;;;16.60;99.90;;;;;;5110896;27;20669;-75
2022/05/10 06:35:25;;;;;;;5.50;5.07;;;16.70;99.90;;;;;;5121025;27;20484;-75
2022/05/10 06:40:40;;;;;;;8.47;4.87;;;17.00;99.90;;;;;;5111920;27;20465;-74
2022/05/10 06:43:07;;;;;;;7.10;4.93;;;17.10;99.90;;;;;;5105334;27;21050;-74
2022/05/10 06:45:36;;;;;;;7.10;4.60;;;17.20;99.90;;;;;;5115947;27;21096;-75
2022/05/10 06:48:04;;;;;;;5.80;5.30;;;17.40;99.90;;;;;;5111934;27;20582;-73
2022/05/10 06:50:32;;;;;;;7.47;5.47;;;17.50;99.90;;;;;;5115155;27;20833;-73
2022/05/10 06:53:00;;;;;;;5.80;4.93;;;17.60;99.90;;;;;;5113688;27;20570;-72
2022/05/10 06:55:32;;;;;;;5.47;4.87;;;17.70;99.90;;;;;;5102754;27;20479;-72
2022/05/10 06:58:02;;;;;;;8.03;5.50;;;17.90;99.90;;;;;;5112795;27;20975;-72
2022/05/10 07:00:32;;;;;;;9.20;5.37;;;18.00;99.90;;;;;;5107342;27;20494;-71
2022/05/10 07:03:05;;;;;;;5.73;4.90;;;18.00;99.90;;;;;;5103404;27;21033;-71
2022/05/10 07:05:33;;;;;;;8.73;5.23;;;18.00;99.90;;;;;;5117418;27;20441;-73
2022/05/10 07:08:01;;;;;;;9.87;5.17;;;18.00;99.90;;;;;;5120001;27;20482;-74
2022/05/10 07:10:28;;;;;;;7.00;4.60;;;18.00;99.90;;;;;;5102323;27;20438;-73
2022/05/10 07:12:58;;;;;;;5.87;5.37;;;18.00;99.90;;;;;;5105454;27;20485;-74
2022/05/10 07:15:27;;;;;;;8.97;5.57;;;18.00;99.90;;;;;;5100034;28;21129;-74
2022/05/10 07:17:55;;;;;;;6.47;5.20;;;18.00;99.90;;;;;;5100478;28;20448;-73
2022/05/10 07:20:23;;;;;;;6.17;5.57;;;18.10;99.90;;;;;;5120324;27;20437;-73
2022/05/10 07:22:51;;;;;;;4.83;4.30;;;18.20;99.90;;;;;;5121595;27;20517;-73
2022/05/10 07:25:24;;;;;;;8.07;5.20;;;18.40;99.90;;;;;;5103106;27;21249;-73
2022/05/10 07:27:52;;;;;;;4.53;4.23;;;18.60;99.90;;;;;;5100368;28;20522;-74
2022/05/10 07:30:20;;;;;;;9.93;5.97;;;18.80;99.90;;;;;;5100428;28;21092;-73
2022/05/10 07:32:50;;;;;;;7.40;5.23;;;19.10;99.90;;;;;;5107137;27;20452;-73
2022/05/10 07:36:23;;;;;;;9.13;6.03;;;19.30;99.90;;;;;;5110618;27;20469;-74
2022/05/10 07:38:10;;;;;;;7.67;5.07;;;19.40;99.90;;;;;;5102227;28;20445;-71
2022/05/10 07:40:38;;;;;;;9.87;4.93;;;19.50;99.90;;;;;;5105427;28;20445;-79
2022/05/10 07:43:06;;;;;;;6.50;5.80;;;19.70;99.90;;;;;;5108798;28;20517;-77
2022/05/10 07:45:35;;;;;;;7.20;5.33;;;19.80;99.90;;;;;;5111070;28;20447;-80
2022/05/10 07:48:06;;;;;;;5.70;5.10;;;20.00;99.90;;;;;;5131051;27;20465;-77
2022/05/10 07:50:34;;;;;;;6.50;5.00;;;20.10;99.90;;;;;;5138220;27;20448;-74
2022/05/10 07:53:06;;;;;;;6.90;4.70;;;20.30;99.90;;;;;;5137318;27;20555;-76
2022/05/10 07:55:34;;;;;;;5.73;4.93;;;20.60;99.90;;;;;;5123430;27;20504;-76
2022/05/10 07:58:04;;;;;;;4.77;4.27;;;20.70;99.90;;;;;;5119273;27;20528;-76
2022/05/10 08:00:33;;;;;;;6.10;5.23;;;20.80;99.90;;;;;;5121253;27;20433;-75
2022/05/10 08:03:10;;;;;;;6.97;5.70;;;20.90;99.90;;;;;;5118323;27;20463;-77
2022/05/10 08:05:40;;;;;;;6.73;4.40;;;20.90;99.90;;;;;;5118033;27;20461;-75
2022/05/10 08:08:09;;;;;;;8.03;4.70;;;21.10;99.90;;;;;;5113371;27;20453;-76
2022/05/10 08:10:38;;;;;;;5.43;4.60;;;21.20;99.90;;;;;;5117253;27;20483;-75
2022/05/10 08:13:10;;;;;;;5.93;4.83;;;21.40;99.90;;;;;;5119730;27;20488;-75
2022/05/10 08:15:39;;;;;;;7.33;4.77;;;21.50;99.90;;;;;;5124427;27;20472;-75
2022/05/10 08:18:08;;;;;;;8.40;5.63;;;21.60;99.90;;;;;;5123706;27;20464;-77
2022/05/10 08:20:37;;;;;;;8.90;5.80;;;21.80;99.90;;;;;;5130559;27;20516;-76
2022/05/10 08:23:07;;;;;;;6.50;5.60;;;21.80;99.90;;;;;;5125312;27;20464;-76
2022/05/10 08:25:35;;;;;;;11.90;5.80;;;21.80;99.90;;;;;;5116218;27;20502;-75
2022/05/10 08:28:04;;;;;;;5.37;4.43;;;21.80;99.90;;;;;;5111728;27;20544;-76
2022/05/10 08:30:32;;;;;;;6.90;5.70;;;21.90;99.90;;;;;;5117940;27;20990;-75
2022/05/10 08:33:00;;;;;;;7.80;5.30;;;22.00;99.90;;;;;;5109372;28;20465;-76
2022/05/10 08:35:45;;;;;;;9.47;5.90;;;22.00;99.90;;;;;;5118655;28;20915;-77
2022/05/10 08:38:12;;;;;;;7.80;6.17;;;22.20;99.90;;;;;;5116154;27;20509;-77
2022/05/10 08:40:43;;;;;;;7.23;5.33;;;22.40;99.90;;;;;;5123016;28;20435;-77
2022/05/10 08:43:18;;;;;;;6.83;6.30;;;22.50;99.90;;;;;;5123505;27;20553;-76
2022/05/10 08:45:47;;;;;;;5.73;5.20;;;22.60;99.90;;;;;;5115952;27;20450;-78
2022/05/10 08:48:15;;;;;;;6.37;5.03;;;22.70;99.90;;;;;;5108673;27;20462;-73
2022/05/10 08:50:47;;;;;;;4.87;4.40;;;22.80;99.90;;;;;;5102141;28;20456;-76
2022/05/10 08:53:17;;;;;;;4.60;4.30;;;22.80;99.90;;;;;;5110043;28;20460;-76
2022/05/10 08:55:48;;;;;;;8.87;4.90;;;22.90;99.90;;;;;;5111433;27;20439;-76
2022/05/10 08:58:33;;;;;;;7.10;5.80;;;22.90;99.90;;;;;;5112854;28;20446;-77
2022/05/10 09:01:23;;;;;;;6.93;5.23;;;22.90;99.90;;;;;;5114100;28;20455;-76
2022/05/10 09:03:59;;;;;;;10.73;5.00;;;22.80;99.90;;;;;;5104983;28;20483;-78
2022/05/10 09:06:41;;;;;;;4.83;4.33;;;22.80;99.90;;;;;;5114567;28;20433;-78
2022/05/10 09:09:18;;;;;;;5.30;4.43;;;22.90;99.90;;;;;;5103505;27;20572;-79
2022/05/10 09:12:11;;;;;;;7.20;5.60;;;22.80;99.90;;;;;;5106884;27;20451;-77
2022/05/10 09:14:47;;;;;;;6.30;5.23;;;22.80;99.90;;;;;;5109504;27;20534;-78
2022/05/10 09:17:17;;;;;;;9.50;6.73;;;22.80;99.90;;;;;;5106316;27;20476;-76
2022/05/10 09:19:45;;;;;;;5.27;4.87;;;22.80;99.90;;;;;;5122393;27;20766;-77
2022/05/10 09:22:48;;;;;;;9.20;5.73;;;22.80;99.90;;;;;;5108032;27;20476;-78
2022/05/10 09:25:28;;;;;;;7.43;5.37;;;22.90;99.90;;;;;;5112555;27;20451;-77
2022/05/10 09:27:56;;;;;;;7.43;5.60;;;22.90;99.90;;;;;;5106659;27;21066;-76
2022/05/10 09:30:29;;;;;;;5.40;4.90;;;22.90;99.90;;;;;;5120103;27;20433;-79
2022/05/10 09:36:02;;;;;;;11.37;5.40;;;22.80;99.90;;;;;;5124680;27;21102;-79
2022/05/10 09:38:33;;;;;;;4.97;4.13;;;22.80;99.90;;;;;;5126164;27;20558;-78
2022/05/10 09:41:01;;;;;;;4.97;4.43;;;22.80;99.90;;;;;;5119756;27;21129;-77
2022/05/10 09:43:32;;;;;;;4.90;4.60;;;22.90;99.90;;;;;;5126338;27;20456;-79
2022/05/10 09:46:11;;;;;;;5.93;5.00;;;23.00;99.90;;;;;;5126202;27;20493;-78
2022/05/10 09:48:42;;;;;;;5.93;4.97;;;23.00;99.90;;;;;;5126421;27;21117;-78
2022/05/10 09:51:36;;;;;;;4.73;4.40;;;22.90;99.90;;;;;;5126807;27;21015;-79
2022/05/10 09:54:13;;;;;;;6.37;4.40;;;23.00;99.90;;;;;;5113221;27;20457;-78
2022/05/10 09:56:44;;;;;;;9.70;4.33;;;23.00;99.90;;;;;;5126145;27;20475;-78
2022/05/10 09:59:30;;;;;;;4.87;4.30;;;23.10;99.90;;;;;;5126498;27;20449;-79
2022/05/10 10:01:59;;;;;;;8.23;3.57;;;23.10;99.90;;;;;;5134673;27;20595;-80
2022/05/10 10:04:31;;;;;;;5.70;3.50;;;23.10;99.90;;;;;;5135701;27;20472;-80
2022/05/10 10:07:09;;;;;;;5.20;3.37;;;23.20;99.90;;;;;;5127571;27;20462;-79
2022/05/10 10:09:41;;;;;;;6.57;3.77;;;23.10;99.90;;;;;;5127031;27;20473;-79
2022/05/10 10:12:16;;;;;;;6.33;4.10;;;23.00;99.90;;;;;;5125277;27;20479;-77
2022/05/10 10:14:47;;;;;;;5.00;3.50;;;23.10;99.90;;;;;;5123894;27;20846;-77
2022/05/10 10:17:27;;;;;;;4.20;3.67;;;23.20;99.90;;;;;;5124737;27;20503;-79
2022/05/10 10:20:01;;;;;;;3.70;3.30;;;23.30;99.90;;;;;;5124875;27;20952;-80
2022/05/10 10:22:46;;;;;;;4.10;3.80;;;23.40;99.90;;;;;;5120188;27;20483;-78
2022/05/10 10:25:21;;;;;;;3.93;3.53;;;23.50;99.90;;;;;;5123286;27;20954;-78
2022/05/10 10:27:52;;;;;;;3.67;3.40;;;23.60;99.90;;;;;;5124031;27;20617;-79
2022/05/10 10:30:26;;;;;;;5.13;4.33;;;23.60;99.50;;;;;;5124828;27;20455;-79
2022/05/10 10:32:56;;;;;;;6.00;3.63;;;23.70;99.70;;;;;;5127011;27;20524;-78
2022/05/10 10:35:33;;;;;;;3.73;3.43;;;23.70;99.40;;;;;;5125507;27;20453;-78
2022/05/10 10:38:11;;;;;;;5.77;3.77;;;23.70;99.00;;;;;;5125155;27;21053;-78
2022/05/10 10:40:43;;;;;;;7.03;3.90;;;23.80;99.40;;;;;;5105091;27;21015;-78
2022/05/10 10:43:23;;;;;;;3.23;3.03;;;23.90;99.40;;;;;;5106231;28;20548;-80
2022/05/10 10:45:55;;;;;;;4.00;3.60;;;24.10;99.40;;;;;;5107753;28;20514;-77
2022/05/10 10:48:34;;;;;;;6.70;3.50;;;24.20;99.10;;;;;;5110382;27;20448;-79
2022/05/10 10:51:02;;;;;;;6.80;4.10;;;24.40;99.40;;;;;;5124368;27;20469;-79
2022/05/10 10:53:34;;;;;;;4.57;4.07;;;24.40;98.70;;;;;;5124945;27;20506;-79
2022/05/10 10:56:22;;;;;;;6.10;4.30;;;24.50;98.60;;;;;;5126827;27;20452;-79
2022/05/10 10:59:02;;;;;;;3.70;2.97;;;24.60;98.50;;;;;;5108098;28;20576;-78
2022/05/10 11:01:46;;;;;;;6.87;3.90;;;24.90;98.50;;;;;;5108328;27;20795;-77
2022/05/10 11:04:35;;;;;;;9.33;3.10;;;25.10;98.20;;;;;;5112485;27;20484;-79
2022/05/10 11:07:10;;;;;;;6.30;3.80;;;25.20;97.20;;;;;;5115879;27;20458;-79
2022/05/10 11:09:48;;;;;;;3.53;3.10;;;25.20;97.00;;;;;;5125243;27;20487;-81
2022/05/10 11:12:33;;;;;;;8.27;3.30;;;25.30;96.40;;;;;;5113696;27;20640;-79
2022/05/10 11:15:17;;;;;;;3.90;2.80;;;25.30;95.50;;;;;;5108823;28;20431;-79
2022/05/10 11:18:02;;;;;;;4.00;2.63;;;25.40;95.70;;;;;;5109764;28;20471;-80
2022/05/10 11:20:43;;;;;;;8.40;2.80;;;25.50;95.90;;;;;;5114063;28;20452;-80
2022/05/10 11:23:25;;;;;;;5.60;2.60;;;25.70;95.40;;;;;;5112871;28;20448;-82
2022/05/10 11:26:10;;;;;;;3.60;2.77;;;25.90;95.40;;;;;;5113617;28;20425;-79
2022/05/10 11:29:10;;;;;;;3.07;2.80;;;26.00;95.20;;;;;;5111883;28;20506;-80
2022/05/10 11:31:47;;;;;;;6.90;2.93;;;26.10;95.00;;;;;;5080974;28;20456;-80
2022/05/10 11:34:41;;;;;;;6.87;3.03;;;26.30;95.00;;;;;;5113216;28;20438;-79
2022/05/10 11:37:13;;;;;;;3.63;2.23;;;26.30;94.20;;;;;;5121916;27;20489;-80
2022/05/10 11:40:04;;;;;;;5.33;2.93;;;26.40;94.30;;;;;;5118319;27;20470;-81
2022/05/10 11:42:44;;;;;;;4.33;2.73;;;26.50;93.60;;;;;;5109188;28;20476;-79
2022/05/10 11:45:59;;;;;;;5.13;3.37;;;26.40;93.60;;;;;;5131008;27;20428;-77
2022/05/10 11:48:55;;;;;;;8.27;2.97;;;26.40;93.40;;;;;;5120274;27;20959;-79
2022/05/10 11:51:53;;;;;;;4.10;2.70;;;26.30;93.20;;;;;;5102951;27;20469;-79
2022/05/10 11:54:42;;;;;;;5.00;3.37;;;26.30;93.60;;;;;;5130600;27;20480;-76
2022/05/10 11:57:13;;;;;;;2.90;2.60;;;26.30;93.30;;;;;;5129919;27;20447;-77
2022/05/10 11:59:42;;;;;;;4.27;3.53;;;26.40;92.90;;;;;;5130953;27;20445;-77
2022/05/10 12:02:45;;;;;;;5.50;2.90;;;26.60;93.30;;;;;;5111826;27;20501;-78
2022/05/10 12:05:25;;;;;;;2.63;2.43;;;26.60;92.90;;;;;;5105396;28;20512;-78
2022/05/10 12:07:54;;;;;;;6.40;2.93;;;26.70;93.00;;;;;;5105485;27;20934;-77
2022/05/10 12:10:37;;;;;;;5.23;2.83;;;26.60;93.30;;;;;;5110398;27;20448;-78
2022/05/10 12:13:11;;;;;;;7.50;3.77;;;26.60;93.40;;;;;;5120418;27;20489;-78
2022/05/10 12:22:08;;;;;;;6.43;3.53;;;26.40;93.30;;;;;;5122139;27;20449;-77
2022/05/10 12:24:37;;;;;;;4.67;3.63;;;26.40;93.50;;;;;;5058289;28;20488;-77
2022/05/10 12:27:35;;;;;;;12.10;4.50;;;26.50;93.90;;;;;;5057092;28;20989;-77
2022/05/10 12:30:32;;;;;;;5.77;3.53;;;26.20;94.50;;;;;;5060357;28;20713;-79
2022/05/10 12:33:33;;;;;;;9.63;4.50;;;25.90;94.20;;;;;;5063770;28;20467;-78
2022/05/10 12:36:08;;;;;;;11.60;4.90;;;25.90;94.80;;;;;;5059824;28;21108;-80
2022/05/10 12:38:46;;;;;;;4.57;3.97;;;25.90;94.70;;;;;;5060892;28;20573;-81
2022/05/10 12:41:40;;;;;;;4.27;3.90;;;25.90;94.70;;;;;;5067548;28;20442;-79
2022/05/10 12:44:24;;;;;;;5.93;3.80;;;25.90;95.30;;;;;;5079952;28;20489;-75
2022/05/10 12:47:09;;;;;;;5.10;3.67;;;25.80;95.10;;;;;;5077781;28;20517;-75
2022/05/10 12:50:02;;;;;;;8.90;4.17;;;25.70;94.90;;;;;;5121573;27;20513;-80
2022/05/10 12:52:39;;;;;;;5.47;4.53;;;25.70;95.00;;;;;;5128463;27;20524;-77
2022/05/10 12:55:16;;;;;;;5.00;3.77;;;25.60;94.80;;;;;;5121202;28;20515;-79
2022/05/10 12:57:48;;;;;;;4.20;3.90;;;25.50;95.20;;;;;;5115916;27;20582;-71
2022/05/10 13:00:21;;;;;;;5.53;4.27;;;25.40;95.00;;;;;;5116844;27;20798;-75
2022/05/10 13:02:58;;;;;;;6.40;4.70;;;25.30;95.30;;;;;;5124713;27;20558;-73
2022/05/10 13:05:44;;;;;;;4.73;4.03;;;25.20;95.30;;;;;;5115369;27;20483;-79
2022/05/10 13:08:30;;;;;;;9.13;5.50;;;25.10;95.50;;;;;;5116841;27;20884;-79
2022/05/10 13:11:22;;;;;;;7.17;4.80;;;25.10;95.90;;;;;;5124003;27;20480;-77
2022/05/10 13:13:52;;;;;;;5.40;4.70;;;25.00;96.10;;;;;;5120690;27;20443;-77
2022/05/10 13:16:20;;;;;;;5.47;4.97;;;24.90;96.20;;;;;;5112943;28;20432;-78
2022/05/10 13:18:53;;;;;;;5.27;4.77;;;24.80;96.20;;;;;;5112047;28;20499;-78
2022/05/10 13:21:26;;;;;;;5.03;4.63;;;24.80;96.30;;;;;;5112652;28;20466;-79
2022/05/10 13:23:55;;;;;;;6.40;4.93;;;24.70;96.30;;;;;;5111659;28;20448;-78
2022/05/10 13:26:24;;;;;;;5.70;5.20;;;24.80;96.50;;;;;;5110946;28;20955;-77
2022/05/10 13:28:55;;;;;;;5.03;4.63;;;24.90;96.50;;;;;;5108966;27;20646;-78
2022/05/10 13:31:27;;;;;;;5.77;5.30;;;24.90;96.50;;;;;;5121484;27;20985;-78
2022/05/10 13:34:10;;;;;;;7.33;5.33;;;24.90;96.70;;;;;;5113367;27;20656;-77